sensor_id;sensor_type;location;lat;lon;timestamp;P1;durP1;ratioP1;P2;durP2;ratioP2
68140;SDS011;54941;52.220;104.306;2023-05-14T00:00:52;14.43;;;5.82;;
68140;SDS011;54941;52.220;104.306;2023-05-14T00:03:19;11.75;;;5.75;;
68140;SDS011;54941;52.220;104.306;2023-05-14T00:05:46;15.60;;;6.25;;
68140;SDS011;54941;52.220;104.306;2023-05-14T00:08:13;11.95;;;6.03;;
68140;SDS011;54941;52.220;104.306;2023-05-14T00:10:39;15.43;;;5.75;;
68140;SDS011;54941;52.220;104.306;2023-05-14T00:13:07;15.93;;;6.47;;
68140;SDS011;54941;52.220;104.306;2023-05-14T00:15:33;14.15;;;6.20;;
68140;SDS011;54941;52.220;104.306;2023-05-14T00:17:59;14.50;;;5.95;;
68140;SDS011;54941;52.220;104.306;2023-05-14T00:20:26;15.88;;;7.07;;
68140;SDS011;54941;52.220;104.306;2023-05-14T00:22:52;15.38;;;6.80;;
68140;SDS011;54941;52.220;104.306;2023-05-14T00:25:19;14.02;;;6.63;;
68140;SDS011;54941;52.220;104.306;2023-05-14T00:27:46;11.35;;;5.82;;
68140;SDS011;54941;52.220;104.306;2023-05-14T00:30:14;12.68;;;5.22;;
68140;SDS011;54941;52.220;104.306;2023-05-14T00:32:40;12.15;;;5.07;;
68140;SDS011;54941;52.220;104.306;2023-05-14T00:35:07;12.80;;;5.53;;
68140;SDS011;54941;52.220;104.306;2023-05-14T00:37:33;9.27;;;3.90;;
68140;SDS011;54941;52.220;104.306;2023-05-14T00:40:00;6.20;;;3.08;;
68140;SDS011;54941;52.220;104.306;2023-05-14T00:42:26;6.07;;;3.35;;
68140;SDS011;54941;52.220;104.306;2023-05-14T00:44:52;6.75;;;3.55;;
68140;SDS011;54941;52.220;104.306;2023-05-14T00:47:20;5.55;;;3.10;;
68140;SDS011;54941;52.220;104.306;2023-05-14T00:49:47;6.18;;;3.25;;
68140;SDS011;54941;52.220;104.306;2023-05-14T00:52:13;6.32;;;3.17;;
68140;SDS011;54941;52.220;104.306;2023-05-14T00:54:41;6.10;;;3.45;;
68140;SDS011;54941;52.220;104.306;2023-05-14T00:57:07;5.95;;;3.40;;
68140;SDS011;54941;52.220;104.306;2023-05-14T00:59:33;6.30;;;3.13;;
68140;SDS011;54941;52.220;104.306;2023-05-14T01:02:00;5.43;;;2.65;;
68140;SDS011;54941;52.220;104.306;2023-05-14T01:04:28;5.32;;;2.80;;
68140;SDS011;54941;52.220;104.306;2023-05-14T01:07:02;5.40;;;2.40;;
68140;SDS011;54941;52.220;104.306;2023-05-14T01:09:39;6.97;;;2.92;;
68140;SDS011;54941;52.220;104.306;2023-05-14T01:12:13;4.47;;;2.40;;
68140;SDS011;54941;52.220;104.306;2023-05-14T01:14:50;4.22;;;2.53;;
68140;SDS011;54941;52.220;104.306;2023-05-14T01:17:19;4.43;;;2.40;;
68140;SDS011;54941;52.220;104.306;2023-05-14T01:19:49;4.03;;;1.77;;
68140;SDS011;54941;52.220;104.306;2023-05-14T01:22:18;3.70;;;1.90;;
68140;SDS011;54941;52.220;104.306;2023-05-14T01:24:44;4.45;;;1.98;;
68140;SDS011;54941;52.220;104.306;2023-05-14T01:27:14;7.13;;;2.83;;
68140;SDS011;54941;52.220;104.306;2023-05-14T01:29:51;4.88;;;2.40;;
68140;SDS011;54941;52.220;104.306;2023-05-14T01:32:23;5.82;;;2.53;;
68140;SDS011;54941;52.220;104.306;2023-05-14T01:34:52;4.25;;;2.20;;
68140;SDS011;54941;52.220;104.306;2023-05-14T01:37:23;5.57;;;2.60;;
68140;SDS011;54941;52.220;104.306;2023-05-14T01:39:50;6.25;;;2.67;;
68140;SDS011;54941;52.220;104.306;2023-05-14T01:42:17;4.68;;;2.58;;
68140;SDS011;54941;52.220;104.306;2023-05-14T01:44:44;5.32;;;2.67;;
68140;SDS011;54941;52.220;104.306;2023-05-14T01:47:10;4.80;;;2.50;;
68140;SDS011;54941;52.220;104.306;2023-05-14T01:49:36;3.72;;;1.90;;
68140;SDS011;54941;52.220;104.306;2023-05-14T01:52:03;5.30;;;2.30;;
68140;SDS011;54941;52.220;104.306;2023-05-14T01:54:31;5.25;;;2.90;;
68140;SDS011;54941;52.220;104.306;2023-05-14T01:56:57;5.93;;;3.55;;
68140;SDS011;54941;52.220;104.306;2023-05-14T01:59:23;6.63;;;3.42;;
68140;SDS011;54941;52.220;104.306;2023-05-14T02:01:50;7.82;;;4.18;;
68140;SDS011;54941;52.220;104.306;2023-05-14T02:04:16;7.63;;;4.15;;
68140;SDS011;54941;52.220;104.306;2023-05-14T02:06:42;7.53;;;3.92;;
68140;SDS011;54941;52.220;104.306;2023-05-14T02:09:09;8.48;;;4.25;;
68140;SDS011;54941;52.220;104.306;2023-05-14T02:11:36;10.80;;;4.47;;
68140;SDS011;54941;52.220;104.306;2023-05-14T02:14:03;8.40;;;4.75;;
68140;SDS011;54941;52.220;104.306;2023-05-14T02:16:29;9.02;;;4.22;;
68140;SDS011;54941;52.220;104.306;2023-05-14T02:18:56;9.73;;;4.75;;
68140;SDS011;54941;52.220;104.306;2023-05-14T02:21:42;11.40;;;5.00;;
68140;SDS011;54941;52.220;104.306;2023-05-14T02:24:08;9.77;;;4.60;;
68140;SDS011;54941;52.220;104.306;2023-05-14T02:26:34;10.77;;;4.22;;
68140;SDS011;54941;52.220;104.306;2023-05-14T02:29:02;8.30;;;4.25;;
68140;SDS011;54941;52.220;104.306;2023-05-14T02:31:28;11.32;;;4.45;;
68140;SDS011;54941;52.220;104.306;2023-05-14T02:33:55;12.05;;;5.10;;
68140;SDS011;54941;52.220;104.306;2023-05-14T02:36:21;11.05;;;4.63;;
68140;SDS011;54941;52.220;104.306;2023-05-14T02:38:47;15.90;;;7.20;;
68140;SDS011;54941;52.220;104.306;2023-05-14T02:41:14;10.90;;;4.55;;
68140;SDS011;54941;52.220;104.306;2023-05-14T02:43:40;8.43;;;3.63;;
68140;SDS011;54941;52.220;104.306;2023-05-14T02:46:08;10.02;;;4.55;;
68140;SDS011;54941;52.220;104.306;2023-05-14T02:48:34;6.50;;;3.88;;
68140;SDS011;54941;52.220;104.306;2023-05-14T02:51:01;6.28;;;3.10;;
68140;SDS011;54941;52.220;104.306;2023-05-14T02:53:27;5.28;;;2.83;;
68140;SDS011;54941;52.220;104.306;2023-05-14T02:55:53;6.88;;;3.25;;
68140;SDS011;54941;52.220;104.306;2023-05-14T02:58:20;6.97;;;2.25;;
68140;SDS011;54941;52.220;104.306;2023-05-14T03:00:46;4.55;;;2.53;;
68140;SDS011;54941;52.220;104.306;2023-05-14T03:03:14;4.43;;;2.35;;
68140;SDS011;54941;52.220;104.306;2023-05-14T03:05:40;6.45;;;2.47;;
68140;SDS011;54941;52.220;104.306;2023-05-14T03:08:07;5.03;;;2.72;;
68140;SDS011;54941;52.220;104.306;2023-05-14T03:10:33;6.00;;;3.25;;
68140;SDS011;54941;52.220;104.306;2023-05-14T03:12:59;7.28;;;3.97;;
68140;SDS011;54941;52.220;104.306;2023-05-14T03:15:26;8.38;;;3.88;;
68140;SDS011;54941;52.220;104.306;2023-05-14T03:17:52;5.80;;;3.22;;
68140;SDS011;54941;52.220;104.306;2023-05-14T03:20:21;5.20;;;3.00;;
68140;SDS011;54941;52.220;104.306;2023-05-14T03:22:48;6.43;;;3.63;;
68140;SDS011;54941;52.220;104.306;2023-05-14T03:25:15;7.55;;;3.60;;
68140;SDS011;54941;52.220;104.306;2023-05-14T03:27:41;8.77;;;3.58;;
68140;SDS011;54941;52.220;104.306;2023-05-14T03:30:08;6.80;;;3.58;;
68140;SDS011;54941;52.220;104.306;2023-05-14T03:32:35;5.68;;;3.28;;
68140;SDS011;54941;52.220;104.306;2023-05-14T03:35:01;5.88;;;3.10;;
68140;SDS011;54941;52.220;104.306;2023-05-14T03:37:31;6.50;;;3.97;;
68140;SDS011;54941;52.220;104.306;2023-05-14T03:39:57;5.35;;;3.15;;
68140;SDS011;54941;52.220;104.306;2023-05-14T03:42:24;6.47;;;3.30;;
68140;SDS011;54941;52.220;104.306;2023-05-14T03:44:50;5.22;;;3.33;;
68140;SDS011;54941;52.220;104.306;2023-05-14T03:47:16;6.05;;;3.08;;
68140;SDS011;54941;52.220;104.306;2023-05-14T03:49:43;6.57;;;3.30;;
68140;SDS011;54941;52.220;104.306;2023-05-14T03:52:09;8.60;;;4.18;;
68140;SDS011;54941;52.220;104.306;2023-05-14T03:54:37;9.68;;;3.88;;
68140;SDS011;54941;52.220;104.306;2023-05-14T03:57:03;8.20;;;4.95;;
68140;SDS011;54941;52.220;104.306;2023-05-14T03:59:30;10.02;;;5.10;;
68140;SDS011;54941;52.220;104.306;2023-05-14T04:01:56;8.85;;;5.35;;
68140;SDS011;54941;52.220;104.306;2023-05-14T04:04:22;8.07;;;4.38;;
68140;SDS011;54941;52.220;104.306;2023-05-14T04:06:49;9.15;;;4.78;;
68140;SDS011;54941;52.220;104.306;2023-05-14T04:09:15;8.65;;;4.05;;
68140;SDS011;54941;52.220;104.306;2023-05-14T04:11:43;8.57;;;4.25;;
68140;SDS011;54941;52.220;104.306;2023-05-14T04:14:10;6.35;;;3.90;;
68140;SDS011;54941;52.220;104.306;2023-05-14T04:16:36;7.60;;;4.20;;
68140;SDS011;54941;52.220;104.306;2023-05-14T04:19:02;6.80;;;3.67;;
68140;SDS011;54941;52.220;104.306;2023-05-14T04:21:29;8.43;;;3.42;;
68140;SDS011;54941;52.220;104.306;2023-05-14T04:23:55;8.70;;;4.00;;
68140;SDS011;54941;52.220;104.306;2023-05-14T04:26:21;8.45;;;4.00;;
68140;SDS011;54941;52.220;104.306;2023-05-14T04:28:49;6.70;;;4.10;;
68140;SDS011;54941;52.220;104.306;2023-05-14T04:31:15;9.43;;;3.85;;
68140;SDS011;54941;52.220;104.306;2023-05-14T04:33:42;6.18;;;3.67;;
68140;SDS011;54941;52.220;104.306;2023-05-14T04:36:08;9.10;;;4.25;;
68140;SDS011;54941;52.220;104.306;2023-05-14T04:38:34;8.40;;;4.38;;
68140;SDS011;54941;52.220;104.306;2023-05-14T04:41:01;9.55;;;4.28;;
68140;SDS011;54941;52.220;104.306;2023-05-14T04:43:27;10.95;;;4.75;;
68140;SDS011;54941;52.220;104.306;2023-05-14T04:45:55;8.45;;;4.03;;
68140;SDS011;54941;52.220;104.306;2023-05-14T04:48:21;10.02;;;4.72;;
68140;SDS011;54941;52.220;104.306;2023-05-14T04:50:47;11.38;;;5.18;;
68140;SDS011;54941;52.220;104.306;2023-05-14T04:53:14;9.98;;;5.30;;
68140;SDS011;54941;52.220;104.306;2023-05-14T04:55:40;12.18;;;5.07;;
68140;SDS011;54941;52.220;104.306;2023-05-14T04:58:06;9.35;;;5.32;;
68140;SDS011;54941;52.220;104.306;2023-05-14T05:00:33;10.20;;;5.57;;
68140;SDS011;54941;52.220;104.306;2023-05-14T05:03:00;10.73;;;5.63;;
68140;SDS011;54941;52.220;104.306;2023-05-14T05:05:27;12.60;;;5.72;;
68140;SDS011;54941;52.220;104.306;2023-05-14T05:07:53;10.50;;;6.22;;
68140;SDS011;54941;52.220;104.306;2023-05-14T05:10:20;9.23;;;6.13;;
68140;SDS011;54941;52.220;104.306;2023-05-14T05:12:47;12.13;;;6.72;;
68140;SDS011;54941;52.220;104.306;2023-05-14T05:15:13;9.57;;;5.32;;
68140;SDS011;54941;52.220;104.306;2023-05-14T05:17:40;9.07;;;5.68;;
68140;SDS011;54941;52.220;104.306;2023-05-14T05:23:18;12.77;;;6.68;;
68140;SDS011;54941;52.220;104.306;2023-05-14T05:25:45;10.10;;;6.95;;
68140;SDS011;54941;52.220;104.306;2023-05-14T05:28:11;10.90;;;6.80;;
68140;SDS011;54941;52.220;104.306;2023-05-14T05:30:38;12.85;;;6.60;;
68140;SDS011;54941;52.220;104.306;2023-05-14T05:33:08;10.57;;;6.70;;
68140;SDS011;54941;52.220;104.306;2023-05-14T05:35:54;15.38;;;7.57;;
68140;SDS011;54941;52.220;104.306;2023-05-14T05:38:22;12.75;;;6.85;;
68140;SDS011;54941;52.220;104.306;2023-05-14T05:40:48;13.00;;;6.75;;
68140;SDS011;54941;52.220;104.306;2023-05-14T05:43:21;10.63;;;5.95;;
68140;SDS011;54941;52.220;104.306;2023-05-14T05:46:03;12.45;;;6.22;;
68140;SDS011;54941;52.220;104.306;2023-05-14T05:48:30;12.98;;;6.53;;
68140;SDS011;54941;52.220;104.306;2023-05-14T05:50:56;14.35;;;6.53;;
68140;SDS011;54941;52.220;104.306;2023-05-14T05:53:24;11.93;;;6.55;;
68140;SDS011;54941;52.220;104.306;2023-05-14T05:55:51;11.52;;;6.10;;
68140;SDS011;54941;52.220;104.306;2023-05-14T05:58:17;13.05;;;5.72;;
68140;SDS011;54941;52.220;104.306;2023-05-14T06:00:43;9.85;;;5.10;;
68140;SDS011;54941;52.220;104.306;2023-05-14T06:03:10;9.27;;;5.80;;
68140;SDS011;54941;52.220;104.306;2023-05-14T06:05:36;10.02;;;5.45;;
68140;SDS011;54941;52.220;104.306;2023-05-14T06:08:03;13.00;;;5.60;;
68140;SDS011;54941;52.220;104.306;2023-05-14T06:10:32;9.35;;;5.43;;
68140;SDS011;54941;52.220;104.306;2023-05-14T06:12:58;8.45;;;4.57;;
68140;SDS011;54941;52.220;104.306;2023-05-14T06:15:24;8.68;;;6.07;;
68140;SDS011;54941;52.220;104.306;2023-05-14T06:17:50;9.00;;;6.10;;
68140;SDS011;54941;52.220;104.306;2023-05-14T06:20:17;6.93;;;4.65;;
68140;SDS011;54941;52.220;104.306;2023-05-14T06:22:44;6.30;;;4.30;;
68140;SDS011;54941;52.220;104.306;2023-05-14T06:25:10;7.93;;;4.13;;
68140;SDS011;54941;52.220;104.306;2023-05-14T06:27:38;6.05;;;3.63;;
68140;SDS011;54941;52.220;104.306;2023-05-14T06:30:05;6.18;;;3.88;;
68140;SDS011;54941;52.220;104.306;2023-05-14T06:32:33;9.73;;;5.45;;
68140;SDS011;54941;52.220;104.306;2023-05-14T06:34:59;11.90;;;5.45;;
68140;SDS011;54941;52.220;104.306;2023-05-14T06:37:30;11.60;;;6.63;;
68140;SDS011;54941;52.220;104.306;2023-05-14T06:39:57;9.43;;;6.45;;
68140;SDS011;54941;52.220;104.306;2023-05-14T06:42:23;12.63;;;5.97;;
68140;SDS011;54941;52.220;104.306;2023-05-14T06:44:51;13.98;;;7.15;;
68140;SDS011;54941;52.220;104.306;2023-05-14T06:47:17;11.45;;;5.68;;
68140;SDS011;54941;52.220;104.306;2023-05-14T06:49:44;10.57;;;5.30;;
68140;SDS011;54941;52.220;104.306;2023-05-14T06:52:10;9.85;;;5.32;;
68140;SDS011;54941;52.220;104.306;2023-05-14T06:54:36;8.63;;;4.65;;
68140;SDS011;54941;52.220;104.306;2023-05-14T06:57:03;10.68;;;5.47;;
68140;SDS011;54941;52.220;104.306;2023-05-14T06:59:29;9.35;;;5.05;;
68140;SDS011;54941;52.220;104.306;2023-05-14T07:01:57;8.48;;;4.60;;
68140;SDS011;54941;52.220;104.306;2023-05-14T07:04:23;8.15;;;5.10;;
68140;SDS011;54941;52.220;104.306;2023-05-14T07:06:50;7.03;;;4.80;;
68140;SDS011;54941;52.220;104.306;2023-05-14T07:09:16;6.78;;;3.38;;
68140;SDS011;54941;52.220;104.306;2023-05-14T07:11:42;5.65;;;3.97;;
68140;SDS011;54941;52.220;104.306;2023-05-14T07:14:09;6.03;;;3.17;;
68140;SDS011;54941;52.220;104.306;2023-05-14T07:16:35;7.95;;;3.97;;
68140;SDS011;54941;52.220;104.306;2023-05-14T07:19:03;5.15;;;3.03;;
68140;SDS011;54941;52.220;104.306;2023-05-14T07:21:29;5.40;;;3.10;;
68140;SDS011;54941;52.220;104.306;2023-05-14T07:23:56;6.40;;;3.60;;
68140;SDS011;54941;52.220;104.306;2023-05-14T07:26:22;6.38;;;4.18;;
68140;SDS011;54941;52.220;104.306;2023-05-14T07:28:49;6.25;;;3.35;;
68140;SDS011;54941;52.220;104.306;2023-05-14T07:31:15;4.35;;;2.58;;
68140;SDS011;54941;52.220;104.306;2023-05-14T07:33:41;4.50;;;2.67;;
68140;SDS011;54941;52.220;104.306;2023-05-14T07:36:09;3.78;;;2.40;;
68140;SDS011;54941;52.220;104.306;2023-05-14T07:38:35;4.45;;;2.60;;
68140;SDS011;54941;52.220;104.306;2023-05-14T07:41:02;6.03;;;3.15;;
68140;SDS011;54941;52.220;104.306;2023-05-14T07:43:28;5.35;;;2.72;;
68140;SDS011;54941;52.220;104.306;2023-05-14T07:45:55;4.32;;;2.60;;
68140;SDS011;54941;52.220;104.306;2023-05-14T07:48:21;3.75;;;2.28;;
68140;SDS011;54941;52.220;104.306;2023-05-14T07:50:47;3.90;;;2.60;;
68140;SDS011;54941;52.220;104.306;2023-05-14T07:53:16;6.07;;;2.53;;
68140;SDS011;54941;52.220;104.306;2023-05-14T07:55:43;4.88;;;2.78;;
68140;SDS011;54941;52.220;104.306;2023-05-14T07:58:09;10.30;;;4.55;;
68140;SDS011;54941;52.220;104.306;2023-05-14T08:00:37;5.50;;;2.78;;
68140;SDS011;54941;52.220;104.306;2023-05-14T08:03:03;7.05;;;3.95;;
68140;SDS011;54941;52.220;104.306;2023-05-14T08:05:29;8.55;;;5.00;;
68140;SDS011;54941;52.220;104.306;2023-05-14T08:07:56;8.38;;;5.00;;
68140;SDS011;54941;52.220;104.306;2023-05-14T08:10:24;8.85;;;5.45;;
68140;SDS011;54941;52.220;104.306;2023-05-14T08:12:50;10.02;;;5.65;;
68140;SDS011;54941;52.220;104.306;2023-05-14T08:15:17;8.13;;;4.50;;
68140;SDS011;54941;52.220;104.306;2023-05-14T08:17:43;12.27;;;5.28;;
68140;SDS011;54941;52.220;104.306;2023-05-14T08:20:12;8.18;;;4.78;;
68140;SDS011;54941;52.220;104.306;2023-05-14T08:22:38;8.18;;;5.07;;
68140;SDS011;54941;52.220;104.306;2023-05-14T08:25:05;7.63;;;4.65;;
68140;SDS011;54941;52.220;104.306;2023-05-14T08:27:35;7.75;;;4.43;;
68140;SDS011;54941;52.220;104.306;2023-05-14T08:30:01;7.20;;;4.10;;
68140;SDS011;54941;52.220;104.306;2023-05-14T08:32:30;9.30;;;4.53;;
68140;SDS011;54941;52.220;104.306;2023-05-14T08:34:56;9.05;;;4.30;;
68140;SDS011;54941;52.220;104.306;2023-05-14T08:37:23;7.13;;;4.35;;
68140;SDS011;54941;52.220;104.306;2023-05-14T08:39:49;10.55;;;3.80;;
68140;SDS011;54941;52.220;104.306;2023-05-14T08:42:15;7.20;;;3.95;;
68140;SDS011;54941;52.220;104.306;2023-05-14T08:44:47;6.20;;;3.15;;
68140;SDS011;54941;52.220;104.306;2023-05-14T08:47:15;4.93;;;2.72;;
68140;SDS011;54941;52.220;104.306;2023-05-14T08:49:45;7.25;;;3.30;;
68140;SDS011;54941;52.220;104.306;2023-05-14T08:52:14;8.70;;;4.25;;
68140;SDS011;54941;52.220;104.306;2023-05-14T08:54:42;8.40;;;5.03;;
68140;SDS011;54941;52.220;104.306;2023-05-14T08:57:11;8.95;;;3.60;;
68140;SDS011;54941;52.220;104.306;2023-05-14T08:59:38;9.23;;;3.80;;
68140;SDS011;54941;52.220;104.306;2023-05-14T09:02:10;5.43;;;3.38;;
68140;SDS011;54941;52.220;104.306;2023-05-14T09:04:48;4.90;;;3.78;;
68140;SDS011;54941;52.220;104.306;2023-05-14T09:07:19;5.30;;;3.33;;
68140;SDS011;54941;52.220;104.306;2023-05-14T09:09:45;9.43;;;4.57;;
68140;SDS011;54941;52.220;104.306;2023-05-14T09:12:12;6.38;;;4.57;;
68140;SDS011;54941;52.220;104.306;2023-05-14T09:14:38;7.13;;;4.38;;
68140;SDS011;54941;52.220;104.306;2023-05-14T09:17:05;7.90;;;4.93;;
68140;SDS011;54941;52.220;104.306;2023-05-14T09:19:32;10.60;;;4.80;;
68140;SDS011;54941;52.220;104.306;2023-05-14T09:21:59;7.38;;;4.18;;
68140;SDS011;54941;52.220;104.306;2023-05-14T09:24:26;6.90;;;4.20;;
68140;SDS011;54941;52.220;104.306;2023-05-14T09:26:53;7.57;;;5.28;;
68140;SDS011;54941;52.220;104.306;2023-05-14T09:29:21;5.88;;;4.00;;
68140;SDS011;54941;52.220;104.306;2023-05-14T09:31:48;6.63;;;4.13;;
68140;SDS011;54941;52.220;104.306;2023-05-14T09:34:24;6.57;;;4.28;;
68140;SDS011;54941;52.220;104.306;2023-05-14T09:36:53;9.10;;;4.68;;
68140;SDS011;54941;52.220;104.306;2023-05-14T09:39:21;8.95;;;4.40;;
68140;SDS011;54941;52.220;104.306;2023-05-14T09:41:50;8.10;;;4.85;;
68140;SDS011;54941;52.220;104.306;2023-05-14T09:44:16;7.70;;;4.03;;
68140;SDS011;54941;52.220;104.306;2023-05-14T09:46:43;7.53;;;4.85;;
68140;SDS011;54941;52.220;104.306;2023-05-14T09:49:09;8.50;;;5.25;;
68140;SDS011;54941;52.220;104.306;2023-05-14T09:51:37;7.47;;;4.30;;
68140;SDS011;54941;52.220;104.306;2023-05-14T09:54:04;7.50;;;3.83;;
68140;SDS011;54941;52.220;104.306;2023-05-14T09:56:31;7.13;;;4.03;;
68140;SDS011;54941;52.220;104.306;2023-05-14T09:58:58;8.45;;;5.25;;
68140;SDS011;54941;52.220;104.306;2023-05-14T10:01:24;10.65;;;4.38;;
68140;SDS011;54941;52.220;104.306;2023-05-14T10:03:55;7.93;;;4.40;;
68140;SDS011;54941;52.220;104.306;2023-05-14T10:06:22;8.82;;;4.13;;
68140;SDS011;54941;52.220;104.306;2023-05-14T10:08:53;6.80;;;3.92;;
68140;SDS011;54941;52.220;104.306;2023-05-14T10:11:22;10.13;;;4.00;;
68140;SDS011;54941;52.220;104.306;2023-05-14T10:13:54;7.50;;;4.15;;
68140;SDS011;54941;52.220;104.306;2023-05-14T10:16:27;7.78;;;5.05;;
68140;SDS011;54941;52.220;104.306;2023-05-14T10:18:59;4.97;;;3.80;;
68140;SDS011;54941;52.220;104.306;2023-05-14T10:21:30;7.93;;;4.60;;
68140;SDS011;54941;52.220;104.306;2023-05-14T10:24:01;6.00;;;4.10;;
68140;SDS011;54941;52.220;104.306;2023-05-14T10:26:28;5.63;;;3.60;;
68140;SDS011;54941;52.220;104.306;2023-05-14T10:28:55;6.57;;;3.95;;
68140;SDS011;54941;52.220;104.306;2023-05-14T10:31:22;5.90;;;3.70;;
68140;SDS011;54941;52.220;104.306;2023-05-14T10:34:08;6.45;;;4.00;;
68140;SDS011;54941;52.220;104.306;2023-05-14T10:37:02;5.22;;;3.60;;
68140;SDS011;54941;52.220;104.306;2023-05-14T10:39:43;6.45;;;3.80;;
68140;SDS011;54941;52.220;104.306;2023-05-14T10:42:11;7.57;;;4.05;;
68140;SDS011;54941;52.220;104.306;2023-05-14T10:47:13;6.05;;;4.22;;
68140;SDS011;54941;52.220;104.306;2023-05-14T10:49:40;6.50;;;3.70;;
68140;SDS011;54941;52.220;104.306;2023-05-14T10:52:07;6.38;;;3.70;;
68140;SDS011;54941;52.220;104.306;2023-05-14T10:54:35;5.75;;;3.78;;
68140;SDS011;54941;52.220;104.306;2023-05-14T10:57:03;5.38;;;3.10;;
68140;SDS011;54941;52.220;104.306;2023-05-14T10:59:35;5.25;;;3.78;;
68140;SDS011;54941;52.220;104.306;2023-05-14T11:02:05;8.02;;;3.58;;
68140;SDS011;54941;52.220;104.306;2023-05-14T11:04:49;5.60;;;3.35;;
68140;SDS011;54941;52.220;104.306;2023-05-14T11:07:17;6.80;;;2.95;;
68140;SDS011;54941;52.220;104.306;2023-05-14T11:09:48;8.73;;;3.53;;
68140;SDS011;54941;52.220;104.306;2023-05-14T11:12:17;6.22;;;3.50;;
68140;SDS011;54941;52.220;104.306;2023-05-14T11:14:43;7.28;;;3.40;;
68140;SDS011;54941;52.220;104.306;2023-05-14T11:17:11;8.73;;;3.70;;
68140;SDS011;54941;52.220;104.306;2023-05-14T11:19:37;6.35;;;3.78;;
68140;SDS011;54941;52.220;104.306;2023-05-14T11:22:04;7.53;;;4.40;;
68140;SDS011;54941;52.220;104.306;2023-05-14T11:24:33;7.28;;;3.78;;
68140;SDS011;54941;52.220;104.306;2023-05-14T11:27:02;7.65;;;3.53;;
68140;SDS011;54941;52.220;104.306;2023-05-14T11:29:31;7.03;;;4.13;;
68140;SDS011;54941;52.220;104.306;2023-05-14T11:31:57;9.20;;;4.68;;
68140;SDS011;54941;52.220;104.306;2023-05-14T11:34:23;5.85;;;3.95;;
68140;SDS011;54941;52.220;104.306;2023-05-14T11:36:50;6.97;;;4.32;;
68140;SDS011;54941;52.220;104.306;2023-05-14T11:39:16;12.65;;;4.90;;
68140;SDS011;54941;52.220;104.306;2023-05-14T11:41:43;6.43;;;3.95;;
68140;SDS011;54941;52.220;104.306;2023-05-14T11:44:09;10.13;;;3.97;;
68140;SDS011;54941;52.220;104.306;2023-05-14T11:46:37;6.28;;;3.80;;
68140;SDS011;54941;52.220;104.306;2023-05-14T11:49:04;8.80;;;4.22;;
68140;SDS011;54941;52.220;104.306;2023-05-14T11:51:30;7.28;;;4.28;;
68140;SDS011;54941;52.220;104.306;2023-05-14T11:53:57;6.88;;;3.90;;
68140;SDS011;54941;52.220;104.306;2023-05-14T11:56:23;7.68;;;5.07;;
68140;SDS011;54941;52.220;104.306;2023-05-14T11:58:54;10.88;;;5.68;;
68140;SDS011;54941;52.220;104.306;2023-05-14T12:01:21;11.45;;;4.40;;
68140;SDS011;54941;52.220;104.306;2023-05-14T12:03:49;9.07;;;4.93;;
68140;SDS011;54941;52.220;104.306;2023-05-14T12:06:16;9.70;;;5.55;;
68140;SDS011;54941;52.220;104.306;2023-05-14T12:08:43;11.18;;;5.35;;
68140;SDS011;54941;52.220;104.306;2023-05-14T12:11:11;10.82;;;4.70;;
68140;SDS011;54941;52.220;104.306;2023-05-14T12:13:38;7.78;;;4.63;;
68140;SDS011;54941;52.220;104.306;2023-05-14T12:16:04;6.90;;;4.63;;
68140;SDS011;54941;52.220;104.306;2023-05-14T12:18:31;10.80;;;5.40;;
68140;SDS011;54941;52.220;104.306;2023-05-14T12:21:02;11.80;;;4.40;;
68140;SDS011;54941;52.220;104.306;2023-05-14T12:23:29;8.60;;;4.90;;
68140;SDS011;54941;52.220;104.306;2023-05-14T12:26:00;8.73;;;4.38;;
68140;SDS011;54941;52.220;104.306;2023-05-14T12:28:26;8.68;;;4.80;;
68140;SDS011;54941;52.220;104.306;2023-05-14T12:30:54;8.55;;;4.63;;
68140;SDS011;54941;52.220;104.306;2023-05-14T12:33:21;10.00;;;5.30;;
68140;SDS011;54941;52.220;104.306;2023-05-14T12:35:48;10.80;;;5.88;;
68140;SDS011;54941;52.220;104.306;2023-05-14T12:38:16;7.97;;;4.82;;
68140;SDS011;54941;52.220;104.306;2023-05-14T12:40:42;8.95;;;5.35;;
68140;SDS011;54941;52.220;104.306;2023-05-14T12:43:08;12.07;;;6.45;;
68140;SDS011;54941;52.220;104.306;2023-05-14T12:45:35;30.88;;;13.18;;
68140;SDS011;54941;52.220;104.306;2023-05-14T12:48:01;39.22;;;18.52;;
68140;SDS011;54941;52.220;104.306;2023-05-14T12:50:28;30.15;;;15.05;;
68140;SDS011;54941;52.220;104.306;2023-05-14T12:52:54;22.20;;;12.25;;
68140;SDS011;54941;52.220;104.306;2023-05-14T12:55:22;15.77;;;6.30;;
68140;SDS011;54941;52.220;104.306;2023-05-14T12:57:48;14.18;;;6.32;;
68140;SDS011;54941;52.220;104.306;2023-05-14T13:00:15;13.25;;;6.93;;
68140;SDS011;54941;52.220;104.306;2023-05-14T13:02:42;47.38;;;19.60;;
68140;SDS011;54941;52.220;104.306;2023-05-14T13:05:08;22.20;;;9.48;;
68140;SDS011;54941;52.220;104.306;2023-05-14T13:07:35;10.80;;;5.80;;
68140;SDS011;54941;52.220;104.306;2023-05-14T13:12:58;11.18;;;4.72;;
68140;SDS011;54941;52.220;104.306;2023-05-14T13:15:32;13.95;;;4.80;;
68140;SDS011;54941;52.220;104.306;2023-05-14T13:18:54;9.63;;;5.22;;
68140;SDS011;54941;52.220;104.306;2023-05-14T13:21:20;15.57;;;6.35;;
68140;SDS011;54941;52.220;104.306;2023-05-14T13:23:47;15.25;;;6.75;;
68140;SDS011;54941;52.220;104.306;2023-05-14T13:26:13;13.73;;;5.93;;
68140;SDS011;54941;52.220;104.306;2023-05-14T13:28:42;11.63;;;4.78;;
68140;SDS011;54941;52.220;104.306;2023-05-14T13:31:08;14.65;;;6.22;;
68140;SDS011;54941;52.220;104.306;2023-05-14T13:33:36;13.88;;;6.38;;
68140;SDS011;54941;52.220;104.306;2023-05-14T13:36:03;15.88;;;7.15;;
68140;SDS011;54941;52.220;104.306;2023-05-14T13:38:31;14.60;;;6.72;;
68140;SDS011;54941;52.220;104.306;2023-05-14T13:40:57;14.60;;;6.47;;
68140;SDS011;54941;52.220;104.306;2023-05-14T13:43:23;11.98;;;5.95;;
68140;SDS011;54941;52.220;104.306;2023-05-14T13:45:51;15.20;;;6.32;;
68140;SDS011;54941;52.220;104.306;2023-05-14T13:48:18;14.65;;;6.63;;
68140;SDS011;54941;52.220;104.306;2023-05-14T13:50:44;16.90;;;7.63;;
68140;SDS011;54941;52.220;104.306;2023-05-14T13:53:10;19.90;;;9.13;;
68140;SDS011;54941;52.220;104.306;2023-05-14T13:55:36;16.40;;;6.60;;
68140;SDS011;54941;52.220;104.306;2023-05-14T13:58:03;10.98;;;4.97;;
68140;SDS011;54941;52.220;104.306;2023-05-14T14:00:29;13.23;;;6.40;;
68140;SDS011;54941;52.220;104.306;2023-05-14T14:02:57;11.23;;;5.80;;
68140;SDS011;54941;52.220;104.306;2023-05-14T14:05:23;22.90;;;10.77;;
68140;SDS011;54941;52.220;104.306;2023-05-14T14:07:50;25.90;;;11.55;;
68140;SDS011;54941;52.220;104.306;2023-05-14T14:10:16;19.85;;;9.60;;
68140;SDS011;54941;52.220;104.306;2023-05-14T14:12:42;12.30;;;5.00;;
68140;SDS011;54941;52.220;104.306;2023-05-14T14:15:09;15.90;;;6.88;;
68140;SDS011;54941;52.220;104.306;2023-05-14T14:17:36;19.27;;;7.15;;
68140;SDS011;54941;52.220;104.306;2023-05-14T14:20:04;20.27;;;10.07;;
68140;SDS011;54941;52.220;104.306;2023-05-14T14:24:57;8.05;;;5.13;;
68140;SDS011;54941;52.220;104.306;2023-05-14T14:27:23;13.10;;;5.63;;
68140;SDS011;54941;52.220;104.306;2023-05-14T14:29:50;18.23;;;9.73;;